Time;durP1;ratioP1;P1;durP2;ratioP2;P2;SDS_P1;SDS_P2;PMS_P1;PMS_P2;Temp;Humidity;BMP_temperature;BMP_pressure;BME280_temperature;BME280_humidity;BME280_pressure;Samples;Min_cycle;Max_cycle;Signal;HPM_P1;HPM_P2
2023/02/26 00:01:28;;;;;;;1.60;1.50;;;;;;;;;;5011702;28;20285;-73
2023/02/26 00:03:58;;;;;;;1.15;1.15;;;;;;;;;;5013492;28;20647;-74
2023/02/26 00:06:28;;;;;;;2.47;2.28;;;;;;;;;;5008644;28;20505;-74
2023/02/26 00:08:56;;;;;;;1.77;1.77;;;;;;;;;;5008492;28;20239;-74
2023/02/26 00:11:27;;;;;;;3.08;2.97;;;;;;;;;;5009887;28;20660;-74
2023/02/26 00:13:55;;;;;;;0.73;0.73;;;;;;;;;;5008165;28;20564;-74
2023/02/26 00:16:27;;;;;;;0.50;0.50;;;;;;;;;;5007441;28;20309;-74
2023/02/26 00:18:56;;;;;;;1.35;1.25;;;;;;;;;;5007943;28;20316;-74
2023/02/26 00:21:32;;;;;;;0.90;0.90;;;;;;;;;;5006005;28;20294;-72
2023/02/26 00:24:00;;;;;;;0.43;0.43;;;;;;;;;;5013176;28;20230;-73
2023/02/26 00:26:31;;;;;;;0.40;0.40;;;;;;;;;;5005179;28;20244;-72
2023/02/26 00:29:01;;;;;;;0.70;0.70;;;;;;;;;;5001730;28;20226;-74
2023/02/26 00:31:29;;;;;;;0.70;0.70;;;;;;;;;;5018363;28;20242;-74
2023/02/26 00:34:07;;;;;;;0.88;0.88;;;;;;;;;;5005665;28;20237;-74
2023/02/26 00:37:01;;;;;;;0.60;0.60;;;;;;;;;;5013001;28;20256;-74
2023/02/26 00:42:25;;;;;;;0.80;0.80;;;;;;;;;;4991969;28;20225;-72
2023/02/26 00:44:53;;;;;;;0.95;0.85;;;;;;;;;;5009303;28;20225;-74
2023/02/26 00:47:26;;;;;;;0.70;0.70;;;;;;;;;;5009637;28;20239;-74
2023/02/26 00:50:03;;;;;;;2.20;2.10;;;;;;;;;;5006643;28;20232;-74
2023/02/26 00:52:36;;;;;;;2.10;2.00;;;;;;;;;;4992293;28;20233;-74
2023/02/26 00:55:08;;;;;;;2.55;2.45;;;;;;;;;;4992705;28;20250;-72
2023/02/26 00:57:41;;;;;;;3.53;3.33;;;;;;;;;;4994656;28;20276;-72
2023/02/26 01:00:22;;;;;;;5.22;4.82;;;;;;;;;;4995894;28;20229;-72
2023/02/26 01:02:57;;;;;;;3.65;3.55;;;;;;;;;;4996020;28;20229;-74
2023/02/26 01:05:25;;;;;;;4.40;4.20;;;;;;;;;;4994605;28;20588;-72
2023/02/26 01:07:59;;;;;;;3.85;3.65;;;;;;;;;;4992079;28;20276;-74
2023/02/26 01:10:27;;;;;;;3.78;3.63;;;;;;;;;;4997500;28;20247;-74
2023/02/26 01:12:56;;;;;;;3.60;3.40;;;;;;;;;;4998319;28;20224;-73
2023/02/26 01:15:26;;;;;;;2.65;2.55;;;;;;;;;;4990028;28;20339;-73
2023/02/26 01:17:56;;;;;;;2.53;2.42;;;;;;;;;;4991598;28;20223;-74
2023/02/26 01:20:27;;;;;;;1.13;1.02;;;;;;;;;;5006733;28;20293;-74
2023/02/26 01:23:01;;;;;;;1.13;1.02;;;;;;;;;;5009587;28;20306;-74
2023/02/26 01:25:31;;;;;;;1.42;1.33;;;;;;;;;;5005439;28;20234;-75
2023/02/26 01:27:59;;;;;;;0.90;0.90;;;;;;;;;;5007844;28;20621;-72
2023/02/26 01:30:35;;;;;;;0.70;0.70;;;;;;;;;;5005974;28;20223;-72
2023/02/26 01:33:07;;;;;;;0.90;0.90;;;;;;;;;;5010090;28;20226;-73
2023/02/26 01:35:42;;;;;;;2.17;2.08;;;;;;;;;;5009334;28;20257;-73
2023/02/26 01:38:18;;;;;;;2.35;2.25;;;;;;;;;;5011549;28;20265;-72
2023/02/26 01:41:00;;;;;;;1.10;1.00;;;;;;;;;;5007081;28;20255;-73
2023/02/26 01:43:49;;;;;;;0.80;0.80;;;;;;;;;;5015097;28;20236;-73
2023/02/26 01:46:29;;;;;;;2.60;2.40;;;;;;;;;;5012108;28;20221;-73
2023/02/26 01:49:14;;;;;;;0.95;0.85;;;;;;;;;;5012584;28;20336;-73
2023/02/26 01:51:55;;;;;;;1.25;1.15;;;;;;;;;;5014727;28;20229;-72
2023/02/26 01:54:52;;;;;;;1.27;1.17;;;;;;;;;;5014640;28;20235;-73
2023/02/26 02:00:14;;;;;;;1.38;1.27;;;;;;;;;;5012777;28;20217;-73
2023/02/26 02:02:44;;;;;;;1.40;1.30;;;;;;;;;;5012894;28;20255;-73
2023/02/26 02:05:21;;;;;;;1.13;1.02;;;;;;;;;;5011305;28;20253;-74
2023/02/26 02:07:51;;;;;;;1.02;0.93;;;;;;;;;;5012454;28;20235;-73
2023/02/26 02:10:22;;;;;;;0.88;0.80;;;;;;;;;;5017752;28;20283;-73
2023/02/26 02:12:54;;;;;;;0.88;0.88;;;;;;;;;;5014217;28;20223;-73
2023/02/26 02:15:26;;;;;;;0.70;0.70;;;;;;;;;;5008783;28;20253;-73
2023/02/26 02:18:01;;;;;;;1.40;1.30;;;;;;;;;;5011533;28;20255;-73
2023/02/26 02:20:44;;;;;;;2.50;2.40;;;;;;;;;;5005325;28;20227;-73
2023/02/26 02:23:19;;;;;;;0.80;0.80;;;;;;;;;;5013096;28;20631;-73
2023/02/26 02:26:15;;;;;;;1.75;1.65;;;;;;;;;;5012709;28;20233;-73
2023/02/26 02:28:58;;;;;;;1.52;1.42;;;;;;;;;;4996371;28;20226;-74
2023/02/26 02:31:30;;;;;;;0.88;0.88;;;;;;;;;;5006978;28;20227;-74
2023/02/26 02:34:02;;;;;;;0.85;0.85;;;;;;;;;;5016051;28;20289;-73
2023/02/26 02:36:33;;;;;;;1.15;1.05;;;;;;;;;;5019458;28;20274;-73
2023/02/26 02:39:04;;;;;;;0.70;0.70;;;;;;;;;;5018505;28;20243;-74
2023/02/26 02:41:33;;;;;;;0.70;0.70;;;;;;;;;;5020107;28;20269;-74
2023/02/26 02:44:02;;;;;;;1.42;1.33;;;;;;;;;;5021389;28;20246;-73
2023/02/26 02:46:32;;;;;;;0.82;0.82;;;;;;;;;;5021537;28;20223;-74
2023/02/26 02:49:02;;;;;;;0.70;0.70;;;;;;;;;;5021557;28;20252;-73
2023/02/26 02:51:32;;;;;;;0.85;0.85;;;;;;;;;;5020846;28;20240;-74
2023/02/26 02:54:02;;;;;;;1.42;1.33;;;;;;;;;;5021677;28;20233;-73
2023/02/26 02:56:35;;;;;;;1.45;1.35;;;;;;;;;;5021621;28;20246;-74
2023/02/26 02:59:06;;;;;;;1.95;1.85;;;;;;;;;;5020369;28;20607;-73
2023/02/26 03:01:36;;;;;;;0.80;0.80;;;;;;;;;;5019983;28;20626;-73
2023/02/26 03:04:08;;;;;;;0.82;0.82;;;;;;;;;;5021158;28;20245;-73
2023/02/26 03:06:36;;;;;;;1.17;1.10;;;;;;;;;;5010075;28;20230;-74
2023/02/26 03:09:05;;;;;;;0.47;0.47;;;;;;;;;;5020206;28;20229;-73
2023/02/26 03:11:33;;;;;;;0.90;0.85;;;;;;;;;;5020102;28;20439;-73
2023/02/26 03:14:00;;;;;;;0.90;0.90;;;;;;;;;;5019850;28;20237;-72
2023/02/26 03:16:42;;;;;;;1.08;1.08;;;;;;;;;;5020681;28;20251;-73
2023/02/26 03:19:16;;;;;;;0.90;0.90;;;;;;;;;;5016684;28;20701;-74
2023/02/26 03:21:47;;;;;;;0.70;0.70;;;;;;;;;;5021702;28;20258;-73
2023/02/26 03:24:17;;;;;;;1.40;1.30;;;;;;;;;;5019678;28;20637;-72
2023/02/26 03:26:48;;;;;;;0.50;0.50;;;;;;;;;;5020423;28;20239;-72
2023/02/26 03:29:18;;;;;;;1.30;1.30;;;;;;;;;;5021305;28;20638;-73
2023/02/26 03:31:51;;;;;;;0.35;0.35;;;;;;;;;;5018868;28;20242;-73
2023/02/26 03:34:22;;;;;;;0.63;0.63;;;;;;;;;;5021713;28;20340;-73
2023/02/26 03:36:54;;;;;;;1.05;1.05;;;;;;;;;;5020190;28;20264;-73
2023/02/26 03:39:24;;;;;;;0.50;0.50;;;;;;;;;;5015882;28;20228;-73
2023/02/26 03:41:55;;;;;;;1.55;1.45;;;;;;;;;;5018174;28;20245;-73
2023/02/26 03:44:25;;;;;;;0.73;0.73;;;;;;;;;;5021139;28;20245;-73
2023/02/26 03:46:59;;;;;;;0.80;0.70;;;;;;;;;;5020628;28;20622;-72
2023/02/26 03:49:30;;;;;;;1.27;1.17;;;;;;;;;;5018130;28;20414;-73
2023/02/26 03:52:06;;;;;;;0.90;0.80;;;;;;;;;;5019715;28;20239;-73
2023/02/26 03:54:35;;;;;;;1.45;1.35;;;;;;;;;;5019172;28;20232;-73
2023/02/26 03:57:03;;;;;;;1.33;1.23;;;;;;;;;;5018886;28;20264;-73
2023/02/26 03:59:33;;;;;;;1.42;1.33;;;;;;;;;;5021111;28;20232;-73
2023/02/26 04:02:04;;;;;;;2.85;2.67;;;;;;;;;;5017548;28;20229;-73
2023/02/26 04:04:34;;;;;;;1.05;0.95;;;;;;;;;;5020583;28;20230;-73
2023/02/26 04:07:02;;;;;;;2.75;2.65;;;;;;;;;;5016390;28;20656;-74
2023/02/26 04:09:30;;;;;;;1.27;1.17;;;;;;;;;;5020319;28;20332;-73
2023/02/26 04:11:59;;;;;;;0.73;0.73;;;;;;;;;;5020289;28;20268;-74
2023/02/26 04:14:29;;;;;;;0.73;0.73;;;;;;;;;;5020295;28;20638;-73
2023/02/26 04:16:57;;;;;;;2.40;2.30;;;;;;;;;;5018279;28;20750;-72
2023/02/26 04:19:26;;;;;;;3.45;3.25;;;;;;;;;;5019930;28;20244;-73
2023/02/26 04:21:55;;;;;;;2.55;2.45;;;;;;;;;;5018290;28;20226;-73
2023/02/26 04:24:23;;;;;;;2.10;2.00;;;;;;;;;;5020032;28;20238;-73
2023/02/26 04:26:51;;;;;;;1.35;1.25;;;;;;;;;;5018323;28;20229;-73
2023/02/26 04:29:22;;;;;;;2.38;2.22;;;;;;;;;;5018168;28;20241;-73
2023/02/26 04:31:51;;;;;;;2.28;2.15;;;;;;;;;;5019391;28;20233;-73
2023/02/26 04:34:20;;;;;;;2.60;2.50;;;;;;;;;;5008506;28;20245;-72
2023/02/26 04:36:52;;;;;;;2.22;2.13;;;;;;;;;;5004019;28;20250;-72
2023/02/26 04:39:20;;;;;;;2.65;2.53;;;;;;;;;;5010874;28;20235;-73
2023/02/26 04:41:47;;;;;;;0.75;0.70;;;;;;;;;;5014859;28;20235;-72
2023/02/26 04:44:15;;;;;;;1.17;1.17;;;;;;;;;;5019796;28;20296;-73
2023/02/26 04:46:43;;;;;;;1.25;1.15;;;;;;;;;;5018636;28;20234;-72
2023/02/26 04:49:10;;;;;;;0.70;0.70;;;;;;;;;;5019342;28;20274;-73
2023/02/26 04:51:38;;;;;;;1.55;1.45;;;;;;;;;;5017873;28;20270;-73
2023/02/26 04:54:07;;;;;;;1.05;0.95;;;;;;;;;;5019826;28;20245;-73
2023/02/26 04:56:35;;;;;;;1.33;1.23;;;;;;;;;;5019168;28;20526;-72
2023/02/26 04:59:03;;;;;;;1.58;1.48;;;;;;;;;;5020367;28;20233;-71
2023/02/26 05:01:30;;;;;;;1.30;1.20;;;;;;;;;;5018972;28;20277;-73
2023/02/26 05:04:00;;;;;;;0.70;0.70;;;;;;;;;;5020834;28;20235;-73
2023/02/26 05:06:28;;;;;;;1.60;1.50;;;;;;;;;;5018624;28;20230;-73
2023/02/26 05:08:55;;;;;;;1.00;0.98;;;;;;;;;;5020416;28;20775;-73
2023/02/26 05:11:25;;;;;;;1.10;1.00;;;;;;;;;;5019218;28;20258;-72
2023/02/26 05:13:53;;;;;;;0.93;0.93;;;;;;;;;;5020190;28;20231;-74
2023/02/26 05:16:20;;;;;;;1.02;0.93;;;;;;;;;;5018126;28;20384;-73
2023/02/26 05:18:48;;;;;;;1.70;1.60;;;;;;;;;;5019651;28;20233;-73
2023/02/26 05:21:16;;;;;;;0.90;0.90;;;;;;;;;;5022974;28;20621;-73
2023/02/26 05:23:46;;;;;;;1.10;1.00;;;;;;;;;;5022439;28;20287;-73
2023/02/26 05:26:19;;;;;;;1.27;1.17;;;;;;;;;;5023136;28;20237;-73
2023/02/26 05:28:48;;;;;;;1.13;1.02;;;;;;;;;;5022456;28;20234;-73
2023/02/26 05:31:16;;;;;;;1.60;1.45;;;;;;;;;;5023583;28;20239;-73
2023/02/26 05:33:43;;;;;;;0.90;0.80;;;;;;;;;;5022404;28;20310;-73
2023/02/26 05:36:11;;;;;;;1.10;1.00;;;;;;;;;;5023355;28;20234;-73
2023/02/26 05:38:39;;;;;;;1.67;1.58;;;;;;;;;;5022185;28;20234;-73
2023/02/26 05:41:07;;;;;;;1.23;1.13;;;;;;;;;;5022480;28;20502;-73
2023/02/26 05:43:35;;;;;;;0.95;0.85;;;;;;;;;;5022206;28;20365;-73
2023/02/26 05:46:04;;;;;;;1.45;1.35;;;;;;;;;;5023023;28;20231;-74
2023/02/26 05:48:32;;;;;;;1.10;1.00;;;;;;;;;;5022705;28;20264;-72
2023/02/26 05:51:00;;;;;;;1.33;1.23;;;;;;;;;;5022032;28;20244;-74
2023/02/26 05:53:28;;;;;;;1.25;1.15;;;;;;;;;;5022968;28;20270;-73
2023/02/26 05:55:56;;;;;;;0.80;0.80;;;;;;;;;;5022730;28;20246;-74
2023/02/26 05:58:26;;;;;;;1.00;1.00;;;;;;;;;;5021236;28;20242;-73
2023/02/26 06:00:57;;;;;;;0.80;0.77;;;;;;;;;;5021653;28;20240;-73
2023/02/26 06:03:27;;;;;;;0.70;0.70;;;;;;;;;;5021351;28;20232;-72
2023/02/26 06:05:58;;;;;;;1.45;1.35;;;;;;;;;;5022549;28;20244;-73
2023/02/26 06:08:29;;;;;;;0.80;0.80;;;;;;;;;;5022968;28;20309;-72
2023/02/26 06:10:57;;;;;;;2.38;2.28;;;;;;;;;;5020018;28;20237;-74
2023/02/26 06:13:24;;;;;;;0.82;0.82;;;;;;;;;;5020616;28;20730;-74
2023/02/26 06:15:53;;;;;;;1.33;1.23;;;;;;;;;;5021839;28;20517;-71
2023/02/26 06:18:20;;;;;;;1.08;1.00;;;;;;;;;;5020243;28;20307;-73
2023/02/26 06:20:49;;;;;;;1.23;1.13;;;;;;;;;;5020701;28;20233;-73
2023/02/26 06:23:17;;;;;;;2.00;1.90;;;;;;;;;;5020429;28;20231;-74
2023/02/26 06:25:45;;;;;;;1.42;1.33;;;;;;;;;;5020791;28;20765;-73
2023/02/26 06:28:13;;;;;;;1.88;1.77;;;;;;;;;;5020123;28;20621;-74
2023/02/26 06:30:41;;;;;;;0.93;0.90;;;;;;;;;;5020677;28;20593;-74
2023/02/26 06:33:09;;;;;;;2.03;1.92;;;;;;;;;;5019695;28;20245;-74
2023/02/26 06:35:36;;;;;;;1.88;1.77;;;;;;;;;;5021978;28;20638;-73
2023/02/26 06:38:06;;;;;;;1.35;1.25;;;;;;;;;;5019616;28;20245;-74
2023/02/26 06:40:33;;;;;;;3.45;3.28;;;;;;;;;;5019902;28;20247;-71
2023/02/26 06:43:02;;;;;;;3.60;3.50;;;;;;;;;;5003702;28;20694;-73
2023/02/26 06:45:31;;;;;;;2.40;2.30;;;;;;;;;;5006802;28;20729;-72
2023/02/26 06:47:59;;;;;;;3.45;3.35;;;;;;;;;;5002864;28;20522;-72
2023/02/26 06:50:27;;;;;;;2.42;2.33;;;;;;;;;;5005310;28;20240;-74
2023/02/26 06:52:54;;;;;;;0.80;0.80;;;;;;;;;;5019878;28;20234;-73
2023/02/26 06:55:25;;;;;;;0.82;0.82;;;;;;;;;;5021512;28;20233;-74
2023/02/26 06:57:53;;;;;;;1.98;1.88;;;;;;;;;;5020288;28;20250;-73
2023/02/26 07:00:22;;;;;;;1.00;0.90;;;;;;;;;;5022093;28;20231;-73
2023/02/26 07:02:53;;;;;;;1.10;1.10;;;;;;;;;;5020594;28;20273;-74
2023/02/26 07:05:21;;;;;;;1.50;1.40;;;;;;;;;;5022772;28;20235;-74
2023/02/26 07:07:49;;;;;;;1.65;1.55;;;;;;;;;;5020841;28;20244;-74
2023/02/26 07:10:20;;;;;;;0.95;0.95;;;;;;;;;;5021647;28;20245;-74
2023/02/26 07:12:49;;;;;;;1.00;0.90;;;;;;;;;;5020924;28;20783;-74
2023/02/26 07:15:17;;;;;;;1.58;1.48;;;;;;;;;;5021052;28;20244;-74
2023/02/26 07:17:44;;;;;;;0.82;0.82;;;;;;;;;;5016929;28;20252;-74
2023/02/26 07:20:15;;;;;;;1.17;1.17;;;;;;;;;;5021957;28;20259;-74
2023/02/26 07:22:56;;;;;;;1.65;1.55;;;;;;;;;;5022105;28;20232;-74
2023/02/26 07:25:24;;;;;;;2.55;2.40;;;;;;;;;;5019654;28;20223;-74
2023/02/26 07:27:53;;;;;;;0.95;0.95;;;;;;;;;;5020251;28;20235;-74
2023/02/26 07:30:21;;;;;;;0.35;0.35;;;;;;;;;;5021396;28;20238;-74
2023/02/26 07:32:49;;;;;;;1.17;1.17;;;;;;;;;;5020964;28;20602;-74
2023/02/26 07:35:17;;;;;;;0.73;0.73;;;;;;;;;;5017839;28;20235;-73
2023/02/26 07:37:45;;;;;;;1.30;1.30;;;;;;;;;;5019446;28;20624;-74
2023/02/26 07:40:12;;;;;;;0.70;0.70;;;;;;;;;;5020419;28;20233;-74
2023/02/26 07:42:41;;;;;;;2.03;1.98;;;;;;;;;;5017578;28;20302;-74
2023/02/26 07:45:13;;;;;;;1.67;1.58;;;;;;;;;;5019560;28;20244;-72
2023/02/26 07:47:41;;;;;;;1.40;1.40;;;;;;;;;;5001772;28;20282;-74
2023/02/26 07:50:09;;;;;;;0.77;0.77;;;;;;;;;;5002575;28;20234;-74
2023/02/26 07:52:38;;;;;;;1.77;1.67;;;;;;;;;;4997658;28;20313;-72
2023/02/26 07:55:06;;;;;;;1.02;1.02;;;;;;;;;;5009675;28;20240;-72
2023/02/26 07:57:43;;;;;;;1.25;1.25;;;;;;;;;;4998487;28;20257;-73
2023/02/26 08:00:16;;;;;;;0.70;0.70;;;;;;;;;;5000547;28;20228;-73
2023/02/26 08:02:48;;;;;;;2.10;2.00;;;;;;;;;;4999099;28;20250;-73
2023/02/26 08:05:19;;;;;;;1.15;1.15;;;;;;;;;;5012576;28;20781;-73
2023/02/26 08:07:50;;;;;;;3.05;2.90;;;;;;;;;;5017060;28;20253;-73
2023/02/26 08:10:25;;;;;;;0.90;0.90;;;;;;;;;;5004742;28;20528;-73
2023/02/26 08:12:54;;;;;;;1.33;1.25;;;;;;;;;;5017407;28;20242;-74
2023/02/26 08:15:29;;;;;;;1.45;1.35;;;;;;;;;;5017600;28;20649;-73
2023/02/26 08:17:58;;;;;;;0.90;0.90;;;;;;;;;;5019017;28;20263;-73
2023/02/26 08:20:27;;;;;;;0.60;0.60;;;;;;;;;;5016158;28;20238;-73
2023/02/26 08:22:57;;;;;;;1.45;1.38;;;;;;;;;;5010455;28;20216;-74
2023/02/26 08:25:34;;;;;;;1.55;1.45;;;;;;;;;;5006875;28;20293;-73
2023/02/26 08:28:04;;;;;;;1.10;1.10;;;;;;;;;;5007515;28;20234;-73
2023/02/26 08:30:36;;;;;;;1.23;1.13;;;;;;;;;;5004992;28;20258;-73
2023/02/26 08:33:04;;;;;;;1.17;1.17;;;;;;;;;;5011191;28;20287;-73
2023/02/26 08:35:34;;;;;;;1.77;1.67;;;;;;;;;;5010378;28;20241;-72
2023/02/26 08:38:13;;;;;;;1.00;0.90;;;;;;;;;;5009990;28;20250;-73
2023/02/26 08:40:43;;;;;;;1.88;1.77;;;;;;;;;;5006045;28;20291;-73
2023/02/26 08:43:13;;;;;;;1.00;1.00;;;;;;;;;;5005391;28;20305;-72
2023/02/26 08:45:49;;;;;;;1.75;1.65;;;;;;;;;;5018698;28;20235;-73
2023/02/26 08:48:18;;;;;;;1.55;1.45;;;;;;;;;;5017845;28;20227;-73
2023/02/26 08:50:51;;;;;;;1.50;1.40;;;;;;;;;;5018296;28;20240;-73
2023/02/26 08:53:20;;;;;;;1.50;1.35;;;;;;;;;;5017439;28;20237;-73
2023/02/26 08:55:49;;;;;;;1.25;1.15;;;;;;;;;;5018268;28;20229;-74
2023/02/26 08:58:33;;;;;;;2.00;1.90;;;;;;;;;;5013139;28;20260;-75
2023/02/26 09:01:09;;;;;;;2.10;2.00;;;;;;;;;;5009317;28;20226;-75
2023/02/26 09:03:36;;;;;;;2.63;2.53;;;;;;;;;;5008913;28;20228;-75
2023/02/26 09:06:05;;;;;;;4.70;4.43;;;;;;;;;;5020141;28;20289;-75
2023/02/26 09:08:39;;;;;;;3.75;3.55;;;;;;;;;;5015348;28;20242;-74
2023/02/26 09:11:09;;;;;;;3.63;3.42;;;;;;;;;;5018754;28;20265;-74
2023/02/26 09:13:36;;;;;;;3.45;3.25;;;;;;;;;;4998925;28;20254;-74
2023/02/26 09:16:06;;;;;;;7.75;7.35;;;;;;;;;;5014205;28;20280;-74
2023/02/26 09:18:36;;;;;;;3.42;3.33;;;;;;;;;;4991354;28;20745;-75
2023/02/26 09:21:05;;;;;;;4.15;3.95;;;;;;;;;;4991253;28;20744;-74
2023/02/26 09:23:39;;;;;;;3.92;3.72;;;;;;;;;;4988281;28;20244;-74
2023/02/26 09:26:11;;;;;;;5.15;4.85;;;;;;;;;;4996050;28;20228;-74
2023/02/26 09:28:40;;;;;;;2.78;2.67;;;;;;;;;;5008207;28;20290;-75
2023/02/26 09:31:26;;;;;;;1.67;1.58;;;;;;;;;;5006251;28;20239;-74
2023/02/26 09:34:00;;;;;;;2.13;2.03;;;;;;;;;;5001783;28;20320;-75
2023/02/26 09:36:30;;;;;;;1.90;1.80;;;;;;;;;;5013247;28;20243;-75
2023/02/26 09:39:03;;;;;;;1.27;1.17;;;;;;;;;;5018379;28;20512;-75
2023/02/26 09:41:48;;;;;;;2.50;2.40;;;;;;;;;;5011442;28;20322;-72
2023/02/26 09:44:23;;;;;;;5.15;4.75;;;;;;;;;;5008833;28;20230;-74
2023/02/26 09:47:15;;;;;;;2.30;2.20;;;;;;;;;;5006888;28;20229;-74
2023/02/26 09:49:53;;;;;;;2.20;2.10;;;;;;;;;;5005174;28;20282;-74
2023/02/26 09:52:34;;;;;;;2.30;2.20;;;;;;;;;;5013656;28;20267;-74
2023/02/26 09:55:19;;;;;;;2.08;1.98;;;;;;;;;;5006920;28;20296;-74
2023/02/26 09:58:03;;;;;;;2.50;2.40;;;;;;;;;;5010399;28;20259;-74
2023/02/26 10:00:40;;;;;;;0.82;0.82;;;;;;;;;;5013193;28;20244;-74
2023/02/26 10:03:28;;;;;;;4.20;3.42;;;;;;;;;;5015019;28;20238;-74
2023/02/26 10:06:19;;;;;;;2.08;1.98;;;;;;;;;;5002805;28;20238;-74
2023/02/26 10:09:12;;;;;;;1.00;1.00;;;;;;;;;;5015731;28;20266;-72
2023/02/26 10:11:50;;;;;;;1.75;1.65;;;;;;;;;;5015442;28;20234;-73
2023/02/26 10:14:28;;;;;;;2.35;2.22;;;;;;;;;;5013749;28;20234;-74
2023/02/26 10:16:59;;;;;;;1.70;1.60;;;;;;;;;;5009749;28;20308;-75
2023/02/26 10:19:34;;;;;;;1.65;1.55;;;;;;;;;;5004206;28;20795;-73
2023/02/26 10:22:18;;;;;;;3.22;3.03;;;;;;;;;;5021128;28;20217;-75
2023/02/26 10:24:50;;;;;;;1.85;1.75;;;;;;;;;;5012424;28;20234;-75
2023/02/26 10:27:21;;;;;;;1.63;1.52;;;;;;;;;;5003272;28;20239;-74
2023/02/26 10:30:10;;;;;;;2.17;2.08;;;;;;;;;;5006909;28;20234;-74
2023/02/26 10:32:45;;;;;;;4.68;4.38;;;;;;;;;;5015513;28;20857;-74
2023/02/26 10:35:24;;;;;;;2.17;2.08;;;;;;;;;;5012829;28;20590;-75
2023/02/26 10:38:01;;;;;;;2.00;1.90;;;;;;;;;;4999308;28;20253;-74
2023/02/26 10:40:34;;;;;;;2.15;2.05;;;;;;;;;;5015202;28;20248;-74
2023/02/26 10:43:07;;;;;;;2.00;1.90;;;;;;;;;;5018989;28;20241;-75
2023/02/26 10:45:49;;;;;;;3.17;2.97;;;;;;;;;;5018327;28;20567;-75
2023/02/26 10:48:27;;;;;;;2.75;2.58;;;;;;;;;;5019867;28;20297;-74
2023/02/26 10:50:57;;;;;;;1.80;1.70;;;;;;;;;;5018584;28;20232;-74
2023/02/26 10:53:27;;;;;;;2.67;2.50;;;;;;;;;;5019672;28;20231;-74
2023/02/26 10:55:58;;;;;;;1.85;1.75;;;;;;;;;;5016323;28;20332;-74
2023/02/26 10:58:31;;;;;;;2.38;2.28;;;;;;;;;;5020502;28;20246;-74
2023/02/26 11:00:59;;;;;;;2.20;2.10;;;;;;;;;;5012354;28;20237;-73
2023/02/26 11:03:33;;;;;;;1.80;1.70;;;;;;;;;;5001741;28;20229;-75
2023/02/26 11:06:03;;;;;;;4.10;3.80;;;;;;;;;;5009104;28;20242;-75
2023/02/26 11:08:36;;;;;;;2.25;2.15;;;;;;;;;;5020701;28;20299;-75
2023/02/26 11:11:28;;;;;;;2.35;2.25;;;;;;;;;;5018980;28;20677;-74
2023/02/26 11:13:56;;;;;;;3.13;3.00;;;;;;;;;;5017973;28;20223;-75
2023/02/26 11:16:25;;;;;;;3.10;2.97;;;;;;;;;;5010594;28;20269;-75
2023/02/26 11:18:59;;;;;;;3.78;3.58;;;;;;;;;;5015921;28;20253;-76
2023/02/26 11:21:29;;;;;;;2.78;2.67;;;;;;;;;;5019481;28;20269;-75
2023/02/26 11:24:01;;;;;;;3.58;3.40;;;;;;;;;;5019738;28;20254;-75
2023/02/26 11:26:35;;;;;;;2.28;2.17;;;;;;;;;;5009308;28;20254;-74
2023/02/26 11:29:03;;;;;;;3.58;3.38;;;;;;;;;;5018916;28;20290;-75
2023/02/26 11:31:34;;;;;;;3.47;3.28;;;;;;;;;;5016946;28;20233;-75
2023/02/26 11:34:04;;;;;;;2.17;2.08;;;;;;;;;;5019013;28;20325;-74
2023/02/26 11:36:37;;;;;;;3.08;2.92;;;;;;;;;;5012965;28;20337;-75
2023/02/26 11:39:17;;;;;;;2.85;2.65;;;;;;;;;;5013584;28;20242;-75
2023/02/26 11:42:00;;;;;;;4.47;4.18;;;;;;;;;;5011511;28;20597;-75
2023/02/26 11:44:49;;;;;;;4.28;3.97;;;;;;;;;;4997880;28;20242;-76
2023/02/26 11:47:27;;;;;;;2.50;2.40;;;;;;;;;;5002248;28;20233;-75
2023/02/26 11:50:24;;;;;;;4.47;4.18;;;;;;;;;;5005841;28;20216;-75
2023/02/26 11:52:56;;;;;;;1.55;1.45;;;;;;;;;;4999280;28;20233;-76
2023/02/26 11:55:29;;;;;;;2.28;2.17;;;;;;;;;;4999004;28;20260;-75
2023/02/26 11:58:00;;;;;;;2.35;2.25;;;;;;;;;;5006301;28;20252;-74
2023/02/26 12:00:32;;;;;;;2.38;2.28;;;;;;;;;;5011898;28;20574;-74
2023/02/26 12:03:03;;;;;;;1.42;1.42;;;;;;;;;;5018101;28;20486;-74
2023/02/26 12:05:31;;;;;;;1.88;1.80;;;;;;;;;;5017759;28;20251;-75
2023/02/26 12:08:15;;;;;;;0.98;0.98;;;;;;;;;;5015897;28;20786;-75
2023/02/26 12:10:48;;;;;;;3.13;3.00;;;;;;;;;;5010834;28;20693;-75
2023/02/26 12:13:21;;;;;;;2.47;2.38;;;;;;;;;;5013362;28;20280;-75
2023/02/26 12:16:04;;;;;;;2.15;2.05;;;;;;;;;;5016316;28;20512;-75
2023/02/26 12:18:41;;;;;;;1.13;1.13;;;;;;;;;;5015407;28;20259;-76
2023/02/26 12:21:16;;;;;;;1.60;1.55;;;;;;;;;;5016144;28;20228;-74
2023/02/26 12:24:09;;;;;;;1.65;1.55;;;;;;;;;;5015349;28;20234;-76
2023/02/26 12:26:41;;;;;;;3.95;3.75;;;;;;;;;;5016708;28;20298;-75
2023/02/26 12:29:16;;;;;;;2.40;2.30;;;;;;;;;;5016025;28;20229;-75
2023/02/26 12:32:04;;;;;;;2.15;2.05;;;;;;;;;;5015536;28;20323;-75
2023/02/26 12:35:14;;;;;;;;;;;;;;;;;;;;;
2023/02/26 12:37:51;;;;;;;2.95;2.75;;;;;;;;;;5016332;28;20240;-76
2023/02/26 12:40:43;;;;;;;3.75;3.55;;;;;;;;;;5016654;28;20256;-75
2023/02/26 12:43:12;;;;;;;3.38;3.15;;;;;;;;;;5015185;28;20239;-74
2023/02/26 12:45:47;;;;;;;1.85;1.75;;;;;;;;;;5016621;28;20249;-75
2023/02/26 12:48:28;;;;;;;3.03;2.88;;;;;;;;;;5014785;28;20319;-74
2023/02/26 12:51:17;;;;;;;3.05;2.95;;;;;;;;;;5013157;28;20243;-74
2023/02/26 12:53:52;;;;;;;1.95;1.88;;;;;;;;;;5008400;28;20225;-74
2023/02/26 12:56:34;;;;;;;1.95;1.85;;;;;;;;;;5013632;28;20312;-74
2023/02/26 12:59:12;;;;;;;2.88;2.78;;;;;;;;;;5014005;28;20628;-74
2023/02/26 13:01:55;;;;;;;2.60;2.50;;;;;;;;;;5013507;28;20239;-72
2023/02/26 13:04:31;;;;;;;1.20;1.20;;;;;;;;;;5010621;28;20220;-75
2023/02/26 13:07:15;;;;;;;1.40;1.40;;;;;;;;;;5007522;28;20226;-75
2023/02/26 13:09:57;;;;;;;5.78;5.47;;;;;;;;;;5001321;28;20238;-76
2023/02/26 13:12:32;;;;;;;2.22;2.13;;;;;;;;;;5016569;28;20228;-76
2023/02/26 13:15:22;;;;;;;1.95;1.88;;;;;;;;;;5014026;28;20511;-75
2023/02/26 13:18:00;;;;;;;2.42;2.28;;;;;;;;;;5014748;28;20226;-76
2023/02/26 13:20:29;;;;;;;2.08;2.00;;;;;;;;;;5008237;28;20249;-75
2023/02/26 13:25:54;;;;;;;2.70;2.60;;;;;;;;;;5006480;28;20319;-75
2023/02/26 13:28:24;;;;;;;3.75;3.55;;;;;;;;;;4997809;28;21006;-75
2023/02/26 13:30:54;;;;;;;2.30;2.20;;;;;;;;;;4998469;28;20237;-75
2023/02/26 13:33:25;;;;;;;1.50;1.50;;;;;;;;;;4997173;28;20229;-76
2023/02/26 13:35:56;;;;;;;1.05;1.05;;;;;;;;;;5013121;28;20228;-74
2023/02/26 13:38:33;;;;;;;1.10;1.10;;;;;;;;;;5014435;28;20256;-74
2023/02/26 13:41:09;;;;;;;2.33;2.22;;;;;;;;;;5005072;28;20236;-74
2023/02/26 13:43:52;;;;;;;2.33;2.22;;;;;;;;;;5011811;28;20287;-73
2023/02/26 13:46:24;;;;;;;2.40;2.30;;;;;;;;;;5016447;28;20300;-74
2023/02/26 13:49:13;;;;;;;1.70;1.63;;;;;;;;;;5016864;28;20223;-73
2023/02/26 13:54:48;;;;;;;3.08;2.85;;;;;;;;;;5010224;28;20289;-75
2023/02/26 13:57:40;;;;;;;1.45;1.40;;;;;;;;;;5010550;28;20418;-74
2023/02/26 14:00:37;;;;;;;3.55;3.35;;;;;;;;;;4997752;28;20270;-75
2023/02/26 14:03:16;;;;;;;1.00;1.00;;;;;;;;;;5006135;28;20244;-72
2023/02/26 14:05:58;;;;;;;1.90;1.80;;;;;;;;;;5011653;28;20281;-75
2023/02/26 14:09:02;;;;;;;2.10;2.00;;;;;;;;;;5009960;28;20231;-73
2023/02/26 14:12:12;;;;;;;3.03;2.92;;;;;;;;;;5008343;28;20235;-74
2023/02/26 14:14:52;;;;;;;2.67;2.58;;;;;;;;;;5007898;28;20292;-74
2023/02/26 14:17:32;;;;;;;2.40;2.30;;;;;;;;;;5011652;28;20236;-74
2023/02/26 14:20:21;;;;;;;2.13;2.03;;;;;;;;;;5018053;28;20259;-74
2023/02/26 14:22:55;;;;;;;1.25;1.25;;;;;;;;;;5012669;28;20344;-74
2023/02/26 14:25:38;;;;;;;1.50;1.40;;;;;;;;;;5009591;28;20238;-74
2023/02/26 14:28:27;;;;;;;3.33;3.13;;;;;;;;;;5000177;28;20323;-75
2023/02/26 14:31:12;;;;;;;2.08;1.98;;;;;;;;;;4999921;28;20228;-73
2023/02/26 14:33:44;;;;;;;2.75;2.65;;;;;;;;;;5015062;28;20652;-75
2023/02/26 14:36:18;;;;;;;1.02;1.02;;;;;;;;;;5017584;28;20598;-74
2023/02/26 14:38:47;;;;;;;1.83;1.73;;;;;;;;;;5000365;28;20327;-75
2023/02/26 14:41:28;;;;;;;2.20;2.10;;;;;;;;;;5014680;28;20724;-75
2023/02/26 14:44:05;;;;;;;2.08;1.98;;;;;;;;;;5015867;28;20376;-74
2023/02/26 14:46:36;;;;;;;3.05;2.88;;;;;;;;;;5012858;28;20224;-74
2023/02/26 14:49:18;;;;;;;2.17;2.08;;;;;;;;;;4999933;28;20333;-72
2023/02/26 14:52:22;;;;;;;2.72;2.63;;;;;;;;;;4998569;28;20233;-75
2023/02/26 14:55:14;;;;;;;1.77;1.67;;;;;;;;;;4999395;28;20233;-73
2023/02/26 14:57:47;;;;;;;2.67;2.58;;;;;;;;;;4999374;28;20233;-76
2023/02/26 15:00:27;;;;;;;2.22;2.13;;;;;;;;;;4999148;28;20347;-76
2023/02/26 15:03:04;;;;;;;3.22;3.10;;;;;;;;;;4998841;28;20658;-74
2023/02/26 15:05:48;;;;;;;2.40;2.30;;;;;;;;;;4998485;28;20687;-75
2023/02/26 15:08:24;;;;;;;2.50;2.40;;;;;;;;;;4999850;28;20230;-74
2023/02/26 15:11:04;;;;;;;2.17;2.08;;;;;;;;;;4998974;28;20287;-75
2023/02/26 15:13:48;;;;;;;1.33;1.33;;;;;;;;;;5002122;28;20235;-74
2023/02/26 15:16:21;;;;;;;2.05;1.95;;;;;;;;;;5016916;28;20729;-75
2023/02/26 15:19:03;;;;;;;1.48;1.48;;;;;;;;;;5018587;28;20698;-75
2023/02/26 15:21:41;;;;;;;7.15;6.75;;;;;;;;;;5006960;28;20582;-74
2023/02/26 15:24:13;;;;;;;2.03;1.92;;;;;;;;;;5002734;28;20234;-74
2023/02/26 15:26:46;;;;;;;2.28;2.17;;;;;;;;;;4999540;28;20235;-74
2023/02/26 15:29:17;;;;;;;1.40;1.40;;;;;;;;;;4998889;28;20233;-74
2023/02/26 15:31:46;;;;;;;2.10;2.00;;;;;;;;;;5000030;28;20244;-75
2023/02/26 15:34:36;;;;;;;2.97;2.83;;;;;;;;;;4998955;28;20625;-75